• Join FlightAware (Why Join?)
  • Login
  • US Flag 
11:07AM EDT


 

Airport Tracker/Info


-or-


 

Live Flight TrackerFlight Track Log ✈ DAL1868 ✈ 22-Apr-2013 ✈ KATL - KAUS

Flight Track Log - Related Links

Times and Time Zones

All times are in EDT time to prevent confusion due to time zone crossing. See the DAL1868 flight status page for this flight to view local times or setup timezone preferences in your user account.

Time Position Orientation Groundspeed Altitude Reporting Facility
EDT Latitude Longitude Course Direction KTS MPH feet Rate Location/Type
08:45AM 33.6478 -84.3756 234° Southwest 453 521 2,700  Level Atlanta Center
08:46AM 33.6728 -84.3033 67° East 344 396 5,100 2,700 Climbing Atlanta Center
08:47AM 33.7461 -84.2786 16° North 287 330 8,100 2,940 Climbing Atlanta Center
08:48AM 33.8086 -84.3164 333° Northwest 296 341 11,000 2,460 Climbing Atlanta Center
08:49AM 33.8001 -84.5055 270° West  Level FlightAware Approximate
08:49AM 33.8125 -84.4389 272° West 318 366 13,100  Level Atlanta Center
08:50AM 33.7642 -84.6311 234° Southwest  Level FlightAware Approximate
08:50AM 33.8119 -84.5439 270° West 334 384 14,900  Level Atlanta Center
08:51AM 33.6957 -84.7426 234° Southwest  Level FlightAware Approximate
08:51AM 33.7761 -84.6436 247° West 328 377 17,300  Level Atlanta Center
08:52AM 33.7131 -84.7381 231° Southwest 347 399 19,000 1,860 Climbing Atlanta Center
08:53AM 33.6539 -84.8300 232° Southwest 359 413 21,000 1,860 Climbing Atlanta Center
08:54AM 33.6136 -84.9344 245° Southwest 365 420 22,800 1,320 Climbing Atlanta Center
08:55AM 33.5772 -85.0486 249° West 371 427 23,700 1,260 Climbing Atlanta Center
08:56AM 33.5325 -85.1628 245° Southwest 371 427 25,300 1,440 Climbing Atlanta Center
08:57AM 33.5019 -85.2794 253° West 372 428 26,600 1,320 Climbing Atlanta Center
08:58AM 33.4819 -85.4061 259° West 383 441 28,000 1,320 Climbing Atlanta Center
08:59AM 33.4639 -85.5328 260° West 389 448 29,300 960 Climbing Atlanta Center
09:00AM 33.4411 -85.6669 259° West 388 447 30,000 300 Climbing Atlanta Center
09:01AM 33.4228 -85.7911 260° West 388 447 30,000  Level Atlanta Center
09:02AM 33.4025 -85.8975 257° West 376 433 30,000  Level Atlanta Center
09:03AM 33.3839 -86.0242 260° West 376 433 30,000  Level Atlanta Center
09:04AM 33.3650 -86.1506 260° West 381 438 30,000  Level Atlanta Center
09:05AM 33.3442 -86.2719 258° West 381 438 30,000  Level Atlanta Center
09:06AM 33.3250 -86.3931 259° West 381 438 30,000  Level Atlanta Center
09:07AM 33.3014 -86.5317 259° West 381 438 30,000  Level Atlanta Center
09:08AM 33.2822 -86.6531 259° West 391 450 30,000  Level Atlanta Center
09:09AM 33.2567 -86.7814 257° West 391 450 30,000  Level Atlanta Center
09:10AM 33.2414 -86.8975 261° West 386 444 30,000  Level Atlanta Center
09:11AM 33.2011 -87.0153 248° West 381 438 30,000  Level Atlanta Center
09:12AM 33.1525 -87.1156 240° Southwest 381 438 30,000  Level Atlanta Center
09:13AM 33.1017 -87.2278 242° Southwest 381 438 30,000  Level Atlanta Center
09:15AM 32.9972 -87.4592 242° Southwest 379 436 30,000  Level Memphis Center
09:16AM 32.9453 -87.5697 241° Southwest 379 436 30,000  Level Memphis Center
09:17AM 32.8958 -87.6828 243° Southwest 384 442 30,000  Level Memphis Center
09:18AM 32.8436 -87.7931 241° Southwest 384 442 30,000  Level Memphis Center
09:19AM 32.7939 -87.9058 242° Southwest 389 448 30,000  Level Memphis Center
09:20AM 32.7458 -88.0183 243° Southwest 389 448 30,000  Level Memphis Center
09:21AM 32.6958 -88.1306 242° Southwest 389 448 30,000  Level Memphis Center
09:22AM 32.6392 -88.2431 239° Southwest 401 461 30,000  Level Memphis Center
09:23AM 32.5889 -88.3553 242° Southwest 401 461 30,000  Level Memphis Center
09:24AM 32.5386 -88.4697 242° Southwest 401 461 30,000  Level Memphis Center
09:25AM 32.4858 -88.5817 241° Southwest 396 456 30,000  Level Memphis Center
09:26AM 32.4333 -88.6933 241° Southwest 396 456 30,000  Level Memphis Center
09:27AM 32.3803 -88.8050 241° Southwest 396 456 30,000  Level Memphis Center
09:28AM 32.3253 -88.9167 240° Southwest 396 456 30,000  Level Memphis Center
09:29AM 32.2703 -89.0256 239° Southwest 396 456 30,000  Level Memphis Center
09:30AM 32.2150 -89.1369 240° Southwest 396 456 30,000  Level Memphis Center
09:31AM 32.1617 -89.2481 240° Southwest 396 456 30,000  Level Memphis Center
09:32AM 32.1064 -89.3592 240° Southwest 396 456 30,000  Level Memphis Center
09:33AM 32.0508 -89.4700 239° Southwest 396 456 30,000  Level Memphis Center
09:34AM 31.9972 -89.5758 239° Southwest 396 456 30,000  Level Memphis Center
09:35AM 31.9414 -89.6867 239° Southwest 396 456 30,000  Level Memphis Center
09:38AM 31.8158 -89.9314 239° Southwest 395 455 30,000  Level Houston Center
09:39AM 31.7619 -90.0406 240° Southwest 391 450 30,000  Level Houston Center
09:40AM 31.6939 -90.1706 238° Southwest 391 450 30,000  Level Houston Center
09:41AM 31.6389 -90.2797 239° Southwest 392 451 30,000  Level Houston Center
09:42AM 31.5833 -90.3878 239° Southwest 391 450 30,000  Level Houston Center
09:43AM 31.5272 -90.4972 239° Southwest 393 452 30,000  Level Houston Center
09:44AM 31.4728 -90.6061 240° Southwest 391 450 30,000  Level Houston Center
09:45AM 31.4150 -90.7150 238° Southwest 395 455 30,000  Level Houston Center
09:46AM 31.3464 -90.8475 239° Southwest 400 460 30,000  Level Houston Center
09:47AM 31.2897 -90.9567 239° Southwest 397 457 30,000  Level Houston Center
09:48AM 31.2344 -91.0653 239° Southwest 395 455 30,000  Level Houston Center
09:49AM 31.1744 -91.1767 238° Southwest 403 464 30,000  Level Houston Center
09:50AM 31.1172 -91.2864 239° Southwest 399 459 30,000  Level Houston Center
09:51AM 31.0469 -91.4186 238° Southwest 401 461 30,000  Level Houston Center
09:52AM 30.9928 -91.5211 238° Southwest 403 464 30,000  Level Houston Center
09:53AM 30.9339 -91.6328 238° Southwest 403 464 30,000  Level Houston Center
09:54AM 30.8744 -91.7442 238° Southwest 403 464 30,000  Level Houston Center
09:55AM 30.8031 -91.8786 238° Southwest 404 465 30,000  Level Houston Center
09:56AM 30.7436 -91.9906 238° Southwest 405 466 30,000  Level Houston Center
09:57AM 30.6844 -92.1028 239° Southwest 405 466 30,000  Level Houston Center
09:58AM 30.6242 -92.2142 238° Southwest 405 466 30,000  Level Houston Center
09:59AM 30.5647 -92.3258 238° Southwest 405 466 30,000  Level Houston Center
10:00AM 30.5044 -92.4375 238° Southwest 406 467 30,000  Level Houston Center
10:01AM 30.4428 -92.5519 238° Southwest 404 465 30,000  Level Houston Center
10:03AM 30.3814 -92.6631 237° Southwest 407 468 30,000 -60 Level Houston Center
10:04AM 30.3211 -92.7747 238° Southwest 408 470 29,900  Descending Houston Center
10:05AM 30.2489 -92.9064 238° Southwest 404 465 30,000  Climbing Houston Center
10:06AM 30.1892 -93.0183 238° Southwest 406 467 30,000  Level Houston Center
10:07AM 30.1394 -93.1358 244° Southwest 412 474 30,000  Level Houston Center
10:08AM 30.1281 -93.2622 264° West 396 456 30,000  Level Houston Center
10:09AM 30.1200 -93.3903 266° West 398 458 30,000  Level Houston Center
10:10AM 30.1097 -93.5197 265° West 399 459 30,000  Level Houston Center
10:11AM 30.0994 -93.6478 265° West 397 457 30,000  Level Houston Center
10:12AM 30.0894 -93.7767 265° West 401 461 30,000  Level Houston Center
10:13AM 30.0792 -93.9053 265° West 401 461 30,000  Level Houston Center
10:14AM 30.0664 -94.0572 264° West 399 459 30,000  Level Houston Center
10:15AM 30.0564 -94.1864 265° West 401 461 30,000  Level Houston Center
10:16AM 30.0464 -94.3153 265° West 403 464 30,000  Level Houston Center
10:17AM 30.0356 -94.4433 264° West 402 463 30,000  Level Houston Center
10:18AM 30.0253 -94.5694 265° West 402 463 30,000  Level Houston Center
10:19AM 30.0139 -94.6967 264° West 402 463 30,000  Level Houston Center
10:20AM 30.0011 -94.8508 265° West 403 464 30,000  Level Houston Center
10:21AM 29.9897 -94.9778 264° West 403 464 30,000  Level Houston Center
10:22AM 29.9794 -95.1058 265° West 404 465 30,000  Level Houston Center
10:23AM 29.9681 -95.2333 264° West 405 466 30,000  Level Houston Center
10:24AM 29.9506 -95.3858 262° West 405 466 30,000  Level Houston Center
10:25AM 29.9231 -95.5117 256° West 407 468 30,000 -240 Level Houston Center
10:26AM 29.8961 -95.6364 256° West 406 467 29,600 -780 Descending Houston Center
10:27AM 29.8689 -95.7644 256° West 411 473 28,500 -1,140 Descending Houston Center
10:28AM 29.8417 -95.8931 256° West 415 478 27,300 -1,260 Descending Houston Center
10:29AM 29.8083 -96.0481 256° West 419 482 25,900 -1,380 Descending Houston Center
10:30AM 29.7808 -96.1792 256° West 421 484 24,500 -1,620 Descending Houston Center
10:31AM 29.7881 -96.3119 274° West 414 476 22,600 -2,340 Descending Houston Center
10:32AM 29.7983 -96.4375 275° West 399 459 19,700 -2,820 Descending Houston Center
10:34AM 29.8108 -96.5636 277° West 397 457 16,800 -2,460 Descending Houston Center
10:35AM 29.8861 -96.6686 310° West 355 409 14,700 -2,040 Descending Houston Center
10:36AM 29.9517 -96.7503 313° West 350 403 12,700 -1,320 Descending Houston Center
10:37AM 30.0153 -96.8286 313° West 339 390 12,000 -660 Descending Houston Center
10:38AM 30.0517 -96.9211 294° West 325 374 11,400 -900 Descending Houston Center
10:39AM 30.0661 -97.0103 281° West 291 335 10,200 -1,200 Descending Houston Center
10:40AM 30.0819 -97.1161 280° West 281 323 9,000 -600 Descending Houston Center
10:41AM 30.0956 -97.2042 280° West 280 322 9,000 -480 Level Houston Center
10:42AM 30.1367 -97.2794 302° West 279 321 8,000 -1,080 Descending Houston Center
10:43AM 30.1828 -97.3503 307° West 278 320 6,800 -1,380 Descending Houston Center
10:44AM 30.2308 -97.4211 308° West 278 320 5,200 -1,380 Descending Houston Center
10:45AM 30.2792 -97.4906 309° West 279 321 4,000 -780 Descending Houston Center
10:46AM 30.3381 -97.5717 310° West 277 319 3,700 -480 Descending Houston Center
10:47AM 30.3944 -97.6064 332° Northwest 274 315 3,100 -300 Descending Houston Center
10:48AM 30.4336 -97.6464 319° Northwest 248 285 3,100  Level Houston Center